Sanko Independence — A8QJ9 — position and weather

sailwx.info

Track history (hours):
 
Tides and Currents Weather Stations Pressure Air Temp Water Temp Dewpoint Dewpoint Depression Visibility Wind Speed Wind Dir Waves Ship Positions

Sanko Independence

Last reported at 2015-Dec-21 16:08 UTC. Time now 2016-Feb-06 13:33 UTC.
Position N 11°01' W 061°59'.
Warning: this ship's position is 46 days out of date.

Length 174 m; draft 8.8 m.

Type: Ship (hazmat cat C). MMSI: 636013946.

Date/timePositionNaut miles runAvg speedWind from/ knotsBaromVisibWave heightAir tempDewpointWater temp
2015-Dec-21 16:08N 11°01' W 061°59'1015.1
2015-Dec-21 15:30N 11°01' W 061°49'1515.2
2015-Dec-21 14:33N 11°04' W 061°35'3 0.7
2015-Dec-21 10:23N 11°02' W 061°33'1 1.2
2015-Dec-21 09:33N 11°01' W 061°33'1 1.2
2015-Dec-21 08:33N 11°00' W 061°33'10 9.7
2015-Dec-21 07:33N 10°59' W 061°43'1 1.0
2015-Dec-21 06:31N 10°58' W 061°42'2 1.5
2015-Dec-21 05:28N 10°58' W 061°40'2 1.7
2015-Dec-21 04:31N 10°58' W 061°39'1 1.2
2015-Dec-21 03:31N 10°58' W 061°38'3 1.7
2015-Dec-21 02:04N 10°58' W 061°35'1 1.9
2015-Dec-21 01:31N 10°59' W 061°34'1 0.8
2015-Dec-21 00:33N 10°59' W 061°33'1413.9
2015-Dec-20 23:33N 10°48' W 061°42'1313.3
2015-Dec-20 22:33N 10°35' W 061°45'1414.4
2015-Dec-20 21:34N 10°23' W 061°37'7 6.7
2015-Dec-20 20:32N 10°23' W 061°30'0 0.0
2015-Dec-20 19:32N 10°23' W 061°30'0 0.0
2015-Dec-20 18:32N 10°23' W 061°30'0 0.0
2015-Dec-20 17:29N 10°23' W 061°30'0 0.0
2015-Dec-20 16:32N 10°23' W 061°30'0 0.0
2015-Dec-20 15:32N 10°23' W 061°30'0 0.0
2015-Dec-20 14:32N 10°23' W 061°30'0 0.0
2015-Dec-20 13:32N 10°23' W 061°30'0 0.0
2015-Dec-20 12:32N 10°23' W 061°30'0 0.0
2015-Dec-20 11:32N 10°23' W 061°30'0 0.0
2015-Dec-20 10:32N 10°23' W 061°30'0 0.0
2015-Dec-20 09:32N 10°23' W 061°30'0 0.0
2015-Dec-20 08:32N 10°23' W 061°30'0 0.0
2015-Dec-20 07:32N 10°23' W 061°30'0 0.0
2015-Dec-20 06:32N 10°23' W 061°30'0 0.0
2015-Dec-20 05:32N 10°23' W 061°30'0 0.0
2015-Dec-20 04:32N 10°23' W 061°30'0 0.0
2015-Dec-20 03:32N 10°23' W 061°30'0 0.0
2015-Dec-20 02:32N 10°23' W 061°30'0 0.0
2015-Dec-20 01:32N 10°23' W 061°30'0 0.0
2015-Dec-20 00:32N 10°23' W 061°30'0 0.0
2015-Dec-19 23:32N 10°23' W 061°30'0 0.0
2015-Dec-19 22:32N 10°23' W 061°30'0 0.0
2015-Dec-19 21:32N 10°23' W 061°30'0 0.0
2015-Dec-19 20:29N 10°23' W 061°30'0 0.0
2015-Dec-19 19:32N 10°23' W 061°30'0 0.0
2015-Dec-19 18:32N 10°23' W 061°30'0 0.0
2015-Dec-19 17:32N 10°23' W 061°30'0 0.0
2015-Dec-19 16:29N 10°23' W 061°30'0 0.0
2015-Dec-19 15:32N 10°23' W 061°30'0 0.0
2015-Dec-19 14:32N 10°23' W 061°30'0 0.0
2015-Dec-19 13:32N 10°23' W 061°30'0 0.0
2015-Dec-19 12:32N 10°23' W 061°30'0 0.0
2015-Dec-19 11:29N 10°23' W 061°30'0 0.0
2015-Dec-19 10:32N 10°23' W 061°30'0 0.0
2015-Dec-19 09:32N 10°23' W 061°30'0 0.0
2015-Dec-19 08:32N 10°23' W 061°30'0 0.0
2015-Dec-19 07:32N 10°23' W 061°30'0 0.0
2015-Dec-19 06:32N 10°23' W 061°30'0 0.0
2015-Dec-19 05:32N 10°23' W 061°30'0 0.0
2015-Dec-19 04:32N 10°23' W 061°30'0 0.0
2015-Dec-19 03:32N 10°23' W 061°30'0 0.0
2015-Dec-19 02:32N 10°23' W 061°30'0 0.0
2015-Dec-19 01:32N 10°23' W 061°30'0 0.0
2015-Dec-19 00:32N 10°23' W 061°30'0 0.0
2015-Dec-18 23:32N 10°23' W 061°30'0 0.0
2015-Dec-18 22:32N 10°23' W 061°30'0 0.0
2015-Dec-18 21:26N 10°23' W 061°30'0 0.0
2015-Dec-18 20:32N 10°23' W 061°30'0 0.0
2015-Dec-18 19:32N 10°23' W 061°30'0 0.0
2015-Dec-18 18:32N 10°23' W 061°30'2 2.4
2015-Dec-18 17:34N 10°22' W 061°32'1 1.1
2015-Dec-18 16:33N 10°23' W 061°32'1 0.6
2015-Dec-18 15:34N 10°22' W 061°33'1 0.7
2015-Dec-18 14:32N 10°22' W 061°34'0 0.1
2015-Dec-18 13:32N 10°22' W 061°34'0 0.0
2015-Dec-18 12:32N 10°22' W 061°34'0 0.0
2015-Dec-18 11:32N 10°22' W 061°34'0 0.0
2015-Dec-18 10:32N 10°22' W 061°34'0 0.0
2015-Dec-18 09:32N 10°22' W 061°34'0 0.0
2015-Dec-18 08:32N 10°22' W 061°34'0 0.0
2015-Dec-18 07:32N 10°22' W 061°34'0 0.0
2015-Dec-18 06:32N 10°22' W 061°34'0 0.0
2015-Dec-18 05:32N 10°22' W 061°34'0 0.0
2015-Dec-18 04:32N 10°22' W 061°34'0 0.0
2015-Dec-18 03:32N 10°22' W 061°34'0 0.0
2015-Dec-18 02:32N 10°22' W 061°34'0 0.0
2015-Dec-18 01:32N 10°22' W 061°34'0 0.0
2015-Dec-18 00:32N 10°22' W 061°34'0 0.0
2015-Dec-17 23:32N 10°22' W 061°34'0 0.0
2015-Dec-17 22:32N 10°22' W 061°34'0 0.0
2015-Dec-17 21:32N 10°22' W 061°34'0 0.0
2015-Dec-17 20:32N 10°22' W 061°34'0 0.0
2015-Dec-17 19:32N 10°22' W 061°34'0 0.0
2015-Dec-17 18:32N 10°22' W 061°34'0 0.0
2015-Dec-17 17:32N 10°22' W 061°34'0 0.0
2015-Dec-17 16:32N 10°22' W 061°34'0 0.0
2015-Dec-17 15:29N 10°22' W 061°34'0 0.0
2015-Dec-17 14:32N 10°22' W 061°34'0 0.0
2015-Dec-17 13:32N 10°22' W 061°34'0 0.0
2015-Dec-17 12:32N 10°22' W 061°34'0 0.0
2015-Dec-17 11:32N 10°22' W 061°33'0 0.0
2015-Dec-17 10:32N 10°22' W 061°34'0 0.0
2015-Dec-17 09:32N 10°22' W 061°34'0 0.0
2015-Dec-17 08:32N 10°22' W 061°34'0 0.0
2015-Dec-17 07:32N 10°22' W 061°34'0 0.0
2015-Dec-17 06:32N 10°22' W 061°34'0 0.0
2015-Dec-17 05:32N 10°22' W 061°34'0 0.0
2015-Dec-17 04:32N 10°22' W 061°34'1 0.5
2015-Dec-17 03:33N 10°22' W 061°34'1110.6
2015-Dec-17 02:34N 10°28' W 061°43'1313.2
2015-Dec-17 01:33N 10°40' W 061°50'1010.3
2015-Dec-17 00:33N 10°48' W 061°56'1514.6
2015-Dec-16 23:33N 10°50' W 062°11'  
Track history (hours):
 
Tides and Currents Weather Stations Pressure Air Temp Water Temp Dewpoint Dewpoint Depression Visibility Wind Speed Wind Dir Waves Ship Positions

Sanko Independence

Last reported at 2015-Dec-21 16:08 UTC. Time now 2016-Feb-06 13:33 UTC.
Position N 11°01' W 061°59'.
Warning: this ship's position is 46 days out of date.

Length 174 m; draft 8.8 m.

Type: Ship (hazmat cat C). MMSI: 636013946.

Date/timePositionNaut miles runAvg speedWind from/ knotsBaromVisibWave heightAir tempDewpointWater temp
2015-Dec-21 16:08N 11°01' W 061°59'1015.1
2015-Dec-21 15:30N 11°01' W 061°49'1515.2
2015-Dec-21 14:33N 11°04' W 061°35'3 0.7
2015-Dec-21 10:23N 11°02' W 061°33'1 1.2
2015-Dec-21 09:33N 11°01' W 061°33'1 1.2
2015-Dec-21 08:33N 11°00' W 061°33'10 9.7
2015-Dec-21 07:33N 10°59' W 061°43'1 1.0
2015-Dec-21 06:31N 10°58' W 061°42'2 1.5
2015-Dec-21 05:28N 10°58' W 061°40'2 1.7
2015-Dec-21 04:31N 10°58' W 061°39'1 1.2
2015-Dec-21 03:31N 10°58' W 061°38'3 1.7
2015-Dec-21 02:04N 10°58' W 061°35'1 1.9
2015-Dec-21 01:31N 10°59' W 061°34'1 0.8
2015-Dec-21 00:33N 10°59' W 061°33'1413.9
2015-Dec-20 23:33N 10°48' W 061°42'1313.3
2015-Dec-20 22:33N 10°35' W 061°45'1414.4
2015-Dec-20 21:34N 10°23' W 061°37'7 6.7
2015-Dec-20 20:32N 10°23' W 061°30'0 0.0
2015-Dec-20 19:32N 10°23' W 061°30'0 0.0
2015-Dec-20 18:32N 10°23' W 061°30'0 0.0
2015-Dec-20 17:29N 10°23' W 061°30'0 0.0
2015-Dec-20 16:32N 10°23' W 061°30'0 0.0
2015-Dec-20 15:32N 10°23' W 061°30'0 0.0
2015-Dec-20 14:32N 10°23' W 061°30'0 0.0
2015-Dec-20 13:32N 10°23' W 061°30'0 0.0
2015-Dec-20 12:32N 10°23' W 061°30'0 0.0
2015-Dec-20 11:32N 10°23' W 061°30'0 0.0
2015-Dec-20 10:32N 10°23' W 061°30'0 0.0
2015-Dec-20 09:32N 10°23' W 061°30'0 0.0
2015-Dec-20 08:32N 10°23' W 061°30'0 0.0
2015-Dec-20 07:32N 10°23' W 061°30'0 0.0
2015-Dec-20 06:32N 10°23' W 061°30'0 0.0
2015-Dec-20 05:32N 10°23' W 061°30'0 0.0
2015-Dec-20 04:32N 10°23' W 061°30'0 0.0
2015-Dec-20 03:32N 10°23' W 061°30'0 0.0
2015-Dec-20 02:32N 10°23' W 061°30'0 0.0
2015-Dec-20 01:32N 10°23' W 061°30'0 0.0
2015-Dec-20 00:32N 10°23' W 061°30'0 0.0
2015-Dec-19 23:32N 10°23' W 061°30'0 0.0
2015-Dec-19 22:32N 10°23' W 061°30'0 0.0
2015-Dec-19 21:32N 10°23' W 061°30'0 0.0
2015-Dec-19 20:29N 10°23' W 061°30'0 0.0
2015-Dec-19 19:32N 10°23' W 061°30'0 0.0
2015-Dec-19 18:32N 10°23' W 061°30'0 0.0
2015-Dec-19 17:32N 10°23' W 061°30'0 0.0
2015-Dec-19 16:29N 10°23' W 061°30'0 0.0
2015-Dec-19 15:32N 10°23' W 061°30'0 0.0
2015-Dec-19 14:32N 10°23' W 061°30'0 0.0
2015-Dec-19 13:32N 10°23' W 061°30'0 0.0
2015-Dec-19 12:32N 10°23' W 061°30'0 0.0
2015-Dec-19 11:29N 10°23' W 061°30'0 0.0
2015-Dec-19 10:32N 10°23' W 061°30'0 0.0
2015-Dec-19 09:32N 10°23' W 061°30'0 0.0
2015-Dec-19 08:32N 10°23' W 061°30'0 0.0
2015-Dec-19 07:32N 10°23' W 061°30'0 0.0
2015-Dec-19 06:32N 10°23' W 061°30'0 0.0
2015-Dec-19 05:32N 10°23' W 061°30'0 0.0
2015-Dec-19 04:32N 10°23' W 061°30'0 0.0
2015-Dec-19 03:32N 10°23' W 061°30'0 0.0
2015-Dec-19 02:32N 10°23' W 061°30'0 0.0
2015-Dec-19 01:32N 10°23' W 061°30'0 0.0
2015-Dec-19 00:32N 10°23' W 061°30'0 0.0
2015-Dec-18 23:32N 10°23' W 061°30'0 0.0
2015-Dec-18 22:32N 10°23' W 061°30'0 0.0
2015-Dec-18 21:26N 10°23' W 061°30'0 0.0
2015-Dec-18 20:32N 10°23' W 061°30'0 0.0
2015-Dec-18 19:32N 10°23' W 061°30'0 0.0
2015-Dec-18 18:32N 10°23' W 061°30'2 2.4
2015-Dec-18 17:34N 10°22' W 061°32'1 1.1
2015-Dec-18 16:33N 10°23' W 061°32'1 0.6
2015-Dec-18 15:34N 10°22' W 061°33'1 0.7
2015-Dec-18 14:32N 10°22' W 061°34'0 0.1
2015-Dec-18 13:32N 10°22' W 061°34'0 0.0
2015-Dec-18 12:32N 10°22' W 061°34'0 0.0
2015-Dec-18 11:32N 10°22' W 061°34'0 0.0
2015-Dec-18 10:32N 10°22' W 061°34'0 0.0
2015-Dec-18 09:32N 10°22' W 061°34'0 0.0
2015-Dec-18 08:32N 10°22' W 061°34'0 0.0
2015-Dec-18 07:32N 10°22' W 061°34'0 0.0
2015-Dec-18 06:32N 10°22' W 061°34'0 0.0
2015-Dec-18 05:32N 10°22' W 061°34'0 0.0
2015-Dec-18 04:32N 10°22' W 061°34'0 0.0
2015-Dec-18 03:32N 10°22' W 061°34'0 0.0
2015-Dec-18 02:32N 10°22' W 061°34'0 0.0
2015-Dec-18 01:32N 10°22' W 061°34'0 0.0
2015-Dec-18 00:32N 10°22' W 061°34'0 0.0
2015-Dec-17 23:32N 10°22' W 061°34'0 0.0
2015-Dec-17 22:32N 10°22' W 061°34'0 0.0
2015-Dec-17 21:32N 10°22' W 061°34'0 0.0
2015-Dec-17 20:32N 10°22' W 061°34'0 0.0
2015-Dec-17 19:32N 10°22' W 061°34'0 0.0
2015-Dec-17 18:32N 10°22' W 061°34'0 0.0
2015-Dec-17 17:32N 10°22' W 061°34'0 0.0
2015-Dec-17 16:32N 10°22' W 061°34'0 0.0
2015-Dec-17 15:29N 10°22' W 061°34'0 0.0
2015-Dec-17 14:32N 10°22' W 061°34'0 0.0
2015-Dec-17 13:32N 10°22' W 061°34'0 0.0
2015-Dec-17 12:32N 10°22' W 061°34'0 0.0
2015-Dec-17 11:32N 10°22' W 061°33'0 0.0
2015-Dec-17 10:32N 10°22' W 061°34'0 0.0
2015-Dec-17 09:32N 10°22' W 061°34'0 0.0
2015-Dec-17 08:32N 10°22' W 061°34'0 0.0
2015-Dec-17 07:32N 10°22' W 061°34'0 0.0
2015-Dec-17 06:32N 10°22' W 061°34'0 0.0
2015-Dec-17 05:32N 10°22' W 061°34'0 0.0
2015-Dec-17 04:32N 10°22' W 061°34'1 0.5
2015-Dec-17 03:33N 10°22' W 061°34'1110.6
2015-Dec-17 02:34N 10°28' W 061°43'1313.2
2015-Dec-17 01:33N 10°40' W 061°50'1010.3
2015-Dec-17 00:33N 10°48' W 061°56'1514.6
2015-Dec-16 23:33N 10°50' W 062°11'  

Dump ship's entire track history